sensor_id;sensor_type;location;lat;lon;timestamp;temperature;humidity
17813;DHT22;9030;50.792;8.320;2023-11-19T00:01:33;6.70;99.90
17813;DHT22;9030;50.792;8.320;2023-11-19T00:04:00;6.70;99.90
17813;DHT22;9030;50.792;8.320;2023-11-19T00:06:26;6.70;99.90
17813;DHT22;9030;50.792;8.320;2023-11-19T00:08:53;6.70;99.90
17813;DHT22;9030;50.792;8.320;2023-11-19T00:11:18;6.80;99.90
17813;DHT22;9030;50.792;8.320;2023-11-19T00:13:45;6.80;99.90
17813;DHT22;9030;50.792;8.320;2023-11-19T00:16:13;6.80;99.90
17813;DHT22;9030;50.792;8.320;2023-11-19T00:18:41;6.80;99.90
17813;DHT22;9030;50.792;8.320;2023-11-19T00:21:08;6.90;99.90
17813;DHT22;9030;50.792;8.320;2023-11-19T00:23:35;6.90;99.90
17813;DHT22;9030;50.792;8.320;2023-11-19T00:26:02;6.90;99.90
17813;DHT22;9030;50.792;8.320;2023-11-19T00:28:31;7.00;99.90
17813;DHT22;9030;50.792;8.320;2023-11-19T00:30:58;7.00;99.90
17813;DHT22;9030;50.792;8.320;2023-11-19T00:33:26;7.10;99.90
17813;DHT22;9030;50.792;8.320;2023-11-19T00:35:52;7.10;99.90
17813;DHT22;9030;50.792;8.320;2023-11-19T00:38:19;7.10;99.90
17813;DHT22;9030;50.792;8.320;2023-11-19T00:40:46;7.10;99.90
17813;DHT22;9030;50.792;8.320;2023-11-19T00:43:13;7.20;99.90
17813;DHT22;9030;50.792;8.320;2023-11-19T00:45:39;7.20;99.90
17813;DHT22;9030;50.792;8.320;2023-11-19T00:48:06;7.20;99.90
17813;DHT22;9030;50.792;8.320;2023-11-19T00:50:34;7.20;99.90
17813;DHT22;9030;50.792;8.320;2023-11-19T00:53:01;7.20;99.90
17813;DHT22;9030;50.792;8.320;2023-11-19T00:55:28;7.20;99.90
17813;DHT22;9030;50.792;8.320;2023-11-19T00:57:55;7.20;99.90
17813;DHT22;9030;50.792;8.320;2023-11-19T01:00:23;7.30;99.90
17813;DHT22;9030;50.792;8.320;2023-11-19T01:02:52;7.30;99.90
17813;DHT22;9030;50.792;8.320;2023-11-19T01:05:19;7.30;99.90
17813;DHT22;9030;50.792;8.320;2023-11-19T01:07:49;7.30;99.90
17813;DHT22;9030;50.792;8.320;2023-11-19T01:10:22;7.30;99.90
17813;DHT22;9030;50.792;8.320;2023-11-19T01:12:49;7.40;99.90
17813;DHT22;9030;50.792;8.320;2023-11-19T01:15:17;7.50;99.90
17813;DHT22;9030;50.792;8.320;2023-11-19T01:17:45;7.50;99.90
17813;DHT22;9030;50.792;8.320;2023-11-19T01:20:11;7.60;99.90
17813;DHT22;9030;50.792;8.320;2023-11-19T01:22:38;7.60;99.90
17813;DHT22;9030;50.792;8.320;2023-11-19T01:25:07;7.70;99.90
17813;DHT22;9030;50.792;8.320;2023-11-19T01:27:34;7.70;99.90
17813;DHT22;9030;50.792;8.320;2023-11-19T01:30:01;7.70;99.90
17813;DHT22;9030;50.792;8.320;2023-11-19T01:32:31;7.70;99.90
17813;DHT22;9030;50.792;8.320;2023-11-19T01:34:58;7.80;99.90
17813;DHT22;9030;50.792;8.320;2023-11-19T01:37:24;7.80;99.90
17813;DHT22;9030;50.792;8.320;2023-11-19T01:39:51;7.80;99.90
17813;DHT22;9030;50.792;8.320;2023-11-19T01:42:19;7.80;99.90
17813;DHT22;9030;50.792;8.320;2023-11-19T01:44:56;7.80;99.90
17813;DHT22;9030;50.792;8.320;2023-11-19T01:47:24;7.80;99.90
17813;DHT22;9030;50.792;8.320;2023-11-19T01:49:51;7.80;99.90
17813;DHT22;9030;50.792;8.320;2023-11-19T01:52:18;7.90;99.90
17813;DHT22;9030;50.792;8.320;2023-11-19T01:54:45;7.90;99.90
17813;DHT22;9030;50.792;8.320;2023-11-19T01:57:12;7.90;99.90
17813;DHT22;9030;50.792;8.320;2023-11-19T01:59:41;7.90;99.90
17813;DHT22;9030;50.792;8.320;2023-11-19T02:02:07;7.90;99.90
17813;DHT22;9030;50.792;8.320;2023-11-19T02:04:34;8.00;99.90
17813;DHT22;9030;50.792;8.320;2023-11-19T02:07:01;8.00;99.90
17813;DHT22;9030;50.792;8.320;2023-11-19T02:09:28;8.10;99.90
17813;DHT22;9030;50.792;8.320;2023-11-19T02:11:55;8.10;99.90
17813;DHT22;9030;50.792;8.320;2023-11-19T02:14:25;8.20;99.90
17813;DHT22;9030;50.792;8.320;2023-11-19T02:16:53;8.20;99.90
17813;DHT22;9030;50.792;8.320;2023-11-19T02:19:20;8.10;99.90
17813;DHT22;9030;50.792;8.320;2023-11-19T02:21:47;8.10;99.90
17813;DHT22;9030;50.792;8.320;2023-11-19T02:24:17;8.20;99.90
17813;DHT22;9030;50.792;8.320;2023-11-19T02:26:51;8.20;99.90
17813;DHT22;9030;50.792;8.320;2023-11-19T02:29:22;8.30;99.90
17813;DHT22;9030;50.792;8.320;2023-11-19T02:31:49;8.20;99.90
17813;DHT22;9030;50.792;8.320;2023-11-19T02:34:16;8.20;99.90
17813;DHT22;9030;50.792;8.320;2023-11-19T02:36:42;8.10;99.90
17813;DHT22;9030;50.792;8.320;2023-11-19T02:39:09;8.20;99.90
17813;DHT22;9030;50.792;8.320;2023-11-19T02:41:37;8.30;99.90
17813;DHT22;9030;50.792;8.320;2023-11-19T02:44:05;8.20;99.90
17813;DHT22;9030;50.792;8.320;2023-11-19T02:46:33;8.30;99.90
17813;DHT22;9030;50.792;8.320;2023-11-19T02:49:00;8.30;99.90
17813;DHT22;9030;50.792;8.320;2023-11-19T02:51:27;8.20;99.90
17813;DHT22;9030;50.792;8.320;2023-11-19T02:53:55;8.30;99.90
17813;DHT22;9030;50.792;8.320;2023-11-19T02:56:22;8.30;99.90
17813;DHT22;9030;50.792;8.320;2023-11-19T02:58:52;8.30;99.90
17813;DHT22;9030;50.792;8.320;2023-11-19T03:01:22;8.30;99.90
17813;DHT22;9030;50.792;8.320;2023-11-19T03:03:56;8.30;99.90
17813;DHT22;9030;50.792;8.320;2023-11-19T03:06:23;8.30;99.90
17813;DHT22;9030;50.792;8.320;2023-11-19T03:08:50;8.30;99.90
17813;DHT22;9030;50.792;8.320;2023-11-19T03:11:16;8.30;99.90
17813;DHT22;9030;50.792;8.320;2023-11-19T03:13:43;8.40;99.90
17813;DHT22;9030;50.792;8.320;2023-11-19T03:16:09;8.40;99.90
17813;DHT22;9030;50.792;8.320;2023-11-19T03:18:37;8.40;99.90
17813;DHT22;9030;50.792;8.320;2023-11-19T03:21:06;8.40;99.90
17813;DHT22;9030;50.792;8.320;2023-11-19T03:23:33;8.50;99.90
17813;DHT22;9030;50.792;8.320;2023-11-19T03:26:00;8.50;99.90
17813;DHT22;9030;50.792;8.320;2023-11-19T03:28:29;8.50;99.90
17813;DHT22;9030;50.792;8.320;2023-11-19T03:30:56;8.50;99.90
17813;DHT22;9030;50.792;8.320;2023-11-19T03:33:22;8.60;99.90
17813;DHT22;9030;50.792;8.320;2023-11-19T03:35:51;8.60;99.90
17813;DHT22;9030;50.792;8.320;2023-11-19T03:38:19;8.60;99.90
17813;DHT22;9030;50.792;8.320;2023-11-19T03:40:46;8.60;99.90
17813;DHT22;9030;50.792;8.320;2023-11-19T03:43:12;8.70;99.90
17813;DHT22;9030;50.792;8.320;2023-11-19T03:45:39;8.70;99.90
17813;DHT22;9030;50.792;8.320;2023-11-19T03:48:06;8.70;99.90
17813;DHT22;9030;50.792;8.320;2023-11-19T03:50:32;8.70;99.90
17813;DHT22;9030;50.792;8.320;2023-11-19T03:53:00;8.80;99.90
17813;DHT22;9030;50.792;8.320;2023-11-19T03:55:29;8.80;99.90
17813;DHT22;9030;50.792;8.320;2023-11-19T03:57:55;8.80;99.90
17813;DHT22;9030;50.792;8.320;2023-11-19T04:00:21;8.90;99.90
17813;DHT22;9030;50.792;8.320;2023-11-19T04:02:48;8.90;99.90
17813;DHT22;9030;50.792;8.320;2023-11-19T04:05:15;8.90;99.90
17813;DHT22;9030;50.792;8.320;2023-11-19T04:07:44;8.90;99.90
17813;DHT22;9030;50.792;8.320;2023-11-19T04:10:10;9.00;99.90
17813;DHT22;9030;50.792;8.320;2023-11-19T04:12:38;9.00;99.90
17813;DHT22;9030;50.792;8.320;2023-11-19T04:15:06;9.00;99.90
17813;DHT22;9030;50.792;8.320;2023-11-19T04:17:33;8.90;99.90
17813;DHT22;9030;50.792;8.320;2023-11-19T04:19:59;9.00;99.90
17813;DHT22;9030;50.792;8.320;2023-11-19T04:22:27;9.00;99.90
17813;DHT22;9030;50.792;8.320;2023-11-19T04:24:54;9.10;99.90
17813;DHT22;9030;50.792;8.320;2023-11-19T04:27:20;9.10;99.90
17813;DHT22;9030;50.792;8.320;2023-11-19T04:29:48;9.10;99.90
17813;DHT22;9030;50.792;8.320;2023-11-19T04:32:16;9.10;99.90
17813;DHT22;9030;50.792;8.320;2023-11-19T04:34:42;9.20;99.90
17813;DHT22;9030;50.792;8.320;2023-11-19T04:37:09;9.20;99.90
17813;DHT22;9030;50.792;8.320;2023-11-19T04:39:36;9.20;99.90
17813;DHT22;9030;50.792;8.320;2023-11-19T04:42:04;9.20;99.90
17813;DHT22;9030;50.792;8.320;2023-11-19T04:44:31;9.20;99.90
17813;DHT22;9030;50.792;8.320;2023-11-19T04:46:59;9.20;99.90
17813;DHT22;9030;50.792;8.320;2023-11-19T04:49:26;9.20;99.90
17813;DHT22;9030;50.792;8.320;2023-11-19T04:51:53;9.20;99.90
17813;DHT22;9030;50.792;8.320;2023-11-19T04:54:20;9.30;99.90
17813;DHT22;9030;50.792;8.320;2023-11-19T04:56:46;9.30;99.90
17813;DHT22;9030;50.792;8.320;2023-11-19T04:59:13;9.40;99.90
17813;DHT22;9030;50.792;8.320;2023-11-19T05:01:40;9.30;99.90
17813;DHT22;9030;50.792;8.320;2023-11-19T05:04:08;9.30;99.90
17813;DHT22;9030;50.792;8.320;2023-11-19T05:06:35;9.30;99.90
17813;DHT22;9030;50.792;8.320;2023-11-19T05:09:03;9.40;99.90
17813;DHT22;9030;50.792;8.320;2023-11-19T05:11:32;9.40;99.90
17813;DHT22;9030;50.792;8.320;2023-11-19T05:13:59;9.40;99.90
17813;DHT22;9030;50.792;8.320;2023-11-19T05:16:26;9.40;99.90
17813;DHT22;9030;50.792;8.320;2023-11-19T05:18:52;9.40;99.90
17813;DHT22;9030;50.792;8.320;2023-11-19T05:21:20;9.50;99.90
17813;DHT22;9030;50.792;8.320;2023-11-19T05:23:47;9.40;99.90
17813;DHT22;9030;50.792;8.320;2023-11-19T05:26:18;9.50;99.90
17813;DHT22;9030;50.792;8.320;2023-11-19T05:28:45;9.50;99.90
17813;DHT22;9030;50.792;8.320;2023-11-19T05:31:11;9.50;99.90
17813;DHT22;9030;50.792;8.320;2023-11-19T05:33:38;9.50;99.90
17813;DHT22;9030;50.792;8.320;2023-11-19T05:36:06;9.50;99.90
17813;DHT22;9030;50.792;8.320;2023-11-19T05:38:34;9.50;99.90
17813;DHT22;9030;50.792;8.320;2023-11-19T05:41:01;9.60;99.90
17813;DHT22;9030;50.792;8.320;2023-11-19T05:43:28;9.70;99.90
17813;DHT22;9030;50.792;8.320;2023-11-19T05:45:54;9.70;99.90
17813;DHT22;9030;50.792;8.320;2023-11-19T05:48:21;9.70;99.90
17813;DHT22;9030;50.792;8.320;2023-11-19T05:50:48;9.70;99.90
17813;DHT22;9030;50.792;8.320;2023-11-19T05:53:16;9.70;99.90
17813;DHT22;9030;50.792;8.320;2023-11-19T05:55:44;9.70;99.90
17813;DHT22;9030;50.792;8.320;2023-11-19T05:58:11;9.70;99.90
17813;DHT22;9030;50.792;8.320;2023-11-19T06:00:38;9.70;99.90
17813;DHT22;9030;50.792;8.320;2023-11-19T06:03:05;9.70;99.90
17813;DHT22;9030;50.792;8.320;2023-11-19T06:05:33;9.70;99.90
17813;DHT22;9030;50.792;8.320;2023-11-19T06:08:00;9.80;99.90
17813;DHT22;9030;50.792;8.320;2023-11-19T06:10:26;10.10;99.90
17813;DHT22;9030;50.792;8.320;2023-11-19T06:12:57;10.00;99.90
17813;DHT22;9030;50.792;8.320;2023-11-19T06:15:25;10.00;99.90
17813;DHT22;9030;50.792;8.320;2023-11-19T06:17:51;10.30;99.90
17813;DHT22;9030;50.792;8.320;2023-11-19T06:20:18;10.50;99.90
17813;DHT22;9030;50.792;8.320;2023-11-19T06:22:45;10.40;99.90
17813;DHT22;9030;50.792;8.320;2023-11-19T06:25:12;10.40;99.90
17813;DHT22;9030;50.792;8.320;2023-11-19T06:27:40;10.30;99.90
17813;DHT22;9030;50.792;8.320;2023-11-19T06:30:09;10.10;99.90
17813;DHT22;9030;50.792;8.320;2023-11-19T06:32:36;10.20;99.90
17813;DHT22;9030;50.792;8.320;2023-11-19T06:35:02;10.20;99.90
17813;DHT22;9030;50.792;8.320;2023-11-19T06:37:30;10.00;99.90
17813;DHT22;9030;50.792;8.320;2023-11-19T06:39:56;10.00;99.90
17813;DHT22;9030;50.792;8.320;2023-11-19T06:42:23;9.90;99.90
17813;DHT22;9030;50.792;8.320;2023-11-19T06:44:50;9.80;99.90
17813;DHT22;9030;50.792;8.320;2023-11-19T06:47:18;9.90;99.90
17813;DHT22;9030;50.792;8.320;2023-11-19T06:49:45;9.80;99.90
17813;DHT22;9030;50.792;8.320;2023-11-19T06:52:11;9.80;99.90
17813;DHT22;9030;50.792;8.320;2023-11-19T06:54:38;9.70;99.90
17813;DHT22;9030;50.792;8.320;2023-11-19T06:57:05;9.70;99.90
17813;DHT22;9030;50.792;8.320;2023-11-19T06:59:32;9.80;99.90
17813;DHT22;9030;50.792;8.320;2023-11-19T07:01:58;10.10;99.90
17813;DHT22;9030;50.792;8.320;2023-11-19T07:04:26;10.00;99.90
17813;DHT22;9030;50.792;8.320;2023-11-19T07:06:53;10.10;99.90
17813;DHT22;9030;50.792;8.320;2023-11-19T07:09:19;10.10;99.90
17813;DHT22;9030;50.792;8.320;2023-11-19T07:11:46;10.00;99.90
17813;DHT22;9030;50.792;8.320;2023-11-19T07:14:13;10.00;99.90
17813;DHT22;9030;50.792;8.320;2023-11-19T07:16:39;10.00;99.90
17813;DHT22;9030;50.792;8.320;2023-11-19T07:19:06;9.90;99.90
17813;DHT22;9030;50.792;8.320;2023-11-19T07:21:34;10.10;99.90
17813;DHT22;9030;50.792;8.320;2023-11-19T07:24:05;10.20;99.90
17813;DHT22;9030;50.792;8.320;2023-11-19T07:26:32;10.20;99.90
17813;DHT22;9030;50.792;8.320;2023-11-19T07:28:59;10.20;99.90
17813;DHT22;9030;50.792;8.320;2023-11-19T07:31:27;10.20;99.90
17813;DHT22;9030;50.792;8.320;2023-11-19T07:33:53;10.10;99.90
17813;DHT22;9030;50.792;8.320;2023-11-19T07:36:20;10.10;99.90
17813;DHT22;9030;50.792;8.320;2023-11-19T07:38:48;10.10;99.90
17813;DHT22;9030;50.792;8.320;2023-11-19T07:41:15;10.20;99.90
17813;DHT22;9030;50.792;8.320;2023-11-19T07:43:43;10.30;99.90
17813;DHT22;9030;50.792;8.320;2023-11-19T07:46:11;10.30;99.90
17813;DHT22;9030;50.792;8.320;2023-11-19T07:48:38;10.40;99.90
17813;DHT22;9030;50.792;8.320;2023-11-19T07:51:05;10.30;99.90
17813;DHT22;9030;50.792;8.320;2023-11-19T07:53:32;10.40;99.90
17813;DHT22;9030;50.792;8.320;2023-11-19T07:56:00;10.30;99.90
17813;DHT22;9030;50.792;8.320;2023-11-19T07:58:27;10.30;99.90
17813;DHT22;9030;50.792;8.320;2023-11-19T08:00:54;10.30;99.90
17813;DHT22;9030;50.792;8.320;2023-11-19T08:03:20;10.50;99.90
17813;DHT22;9030;50.792;8.320;2023-11-19T08:05:48;10.60;99.90
17813;DHT22;9030;50.792;8.320;2023-11-19T08:08:15;10.80;99.90
17813;DHT22;9030;50.792;8.320;2023-11-19T08:10:42;11.00;99.90
17813;DHT22;9030;50.792;8.320;2023-11-19T08:13:10;11.10;99.90
17813;DHT22;9030;50.792;8.320;2023-11-19T08:15:36;11.00;99.90
17813;DHT22;9030;50.792;8.320;2023-11-19T08:18:03;11.10;99.90
17813;DHT22;9030;50.792;8.320;2023-11-19T08:20:30;11.10;99.90
17813;DHT22;9030;50.792;8.320;2023-11-19T08:22:57;11.10;99.90
17813;DHT22;9030;50.792;8.320;2023-11-19T08:25:24;11.20;99.90
17813;DHT22;9030;50.792;8.320;2023-11-19T08:27:50;11.10;99.90
17813;DHT22;9030;50.792;8.320;2023-11-19T08:30:19;11.00;99.90
17813;DHT22;9030;50.792;8.320;2023-11-19T08:32:46;11.00;99.90
17813;DHT22;9030;50.792;8.320;2023-11-19T08:35:12;10.90;99.90
17813;DHT22;9030;50.792;8.320;2023-11-19T08:37:40;11.00;99.90
17813;DHT22;9030;50.792;8.320;2023-11-19T08:40:08;11.20;99.90
17813;DHT22;9030;50.792;8.320;2023-11-19T08:42:35;11.20;99.90
17813;DHT22;9030;50.792;8.320;2023-11-19T08:45:02;11.30;99.90
17813;DHT22;9030;50.792;8.320;2023-11-19T08:47:31;11.30;99.90
17813;DHT22;9030;50.792;8.320;2023-11-19T08:49:58;11.20;99.90
17813;DHT22;9030;50.792;8.320;2023-11-19T08:52:24;11.10;99.90
17813;DHT22;9030;50.792;8.320;2023-11-19T08:54:51;11.10;99.90
17813;DHT22;9030;50.792;8.320;2023-11-19T08:57:18;11.10;99.90
17813;DHT22;9030;50.792;8.320;2023-11-19T08:59:44;11.10;99.90
17813;DHT22;9030;50.792;8.320;2023-11-19T09:02:12;11.10;99.90
17813;DHT22;9030;50.792;8.320;2023-11-19T09:04:40;11.00;99.90
17813;DHT22;9030;50.792;8.320;2023-11-19T09:07:07;10.90;99.90
17813;DHT22;9030;50.792;8.320;2023-11-19T09:09:34;10.80;99.90
17813;DHT22;9030;50.792;8.320;2023-11-19T09:12:02;10.60;99.90
17813;DHT22;9030;50.792;8.320;2023-11-19T09:14:29;10.50;99.90
17813;DHT22;9030;50.792;8.320;2023-11-19T09:16:56;10.50;99.90
17813;DHT22;9030;50.792;8.320;2023-11-19T09:19:23;10.40;99.90
17813;DHT22;9030;50.792;8.320;2023-11-19T09:21:51;10.30;99.90
17813;DHT22;9030;50.792;8.320;2023-11-19T09:24:18;10.30;99.90
17813;DHT22;9030;50.792;8.320;2023-11-19T09:26:45;10.20;99.90
17813;DHT22;9030;50.792;8.320;2023-11-19T09:29:11;10.20;99.90
17813;DHT22;9030;50.792;8.320;2023-11-19T09:31:39;10.20;99.90
17813;DHT22;9030;50.792;8.320;2023-11-19T09:34:06;10.20;99.90
17813;DHT22;9030;50.792;8.320;2023-11-19T09:36:33;10.20;99.90
17813;DHT22;9030;50.792;8.320;2023-11-19T09:39:01;10.10;99.90
17813;DHT22;9030;50.792;8.320;2023-11-19T09:41:29;10.00;99.90
17813;DHT22;9030;50.792;8.320;2023-11-19T09:43:56;10.00;99.90
17813;DHT22;9030;50.792;8.320;2023-11-19T09:46:23;10.30;99.90
17813;DHT22;9030;50.792;8.320;2023-11-19T09:48:52;10.50;99.90
17813;DHT22;9030;50.792;8.320;2023-11-19T09:51:20;10.80;99.90
17813;DHT22;9030;50.792;8.320;2023-11-19T09:53:47;10.90;99.90
17813;DHT22;9030;50.792;8.320;2023-11-19T09:56:16;11.10;99.90
17813;DHT22;9030;50.792;8.320;2023-11-19T09:58:43;11.20;99.90
17813;DHT22;9030;50.792;8.320;2023-11-19T10:01:09;11.30;99.90
17813;DHT22;9030;50.792;8.320;2023-11-19T10:03:38;11.40;99.90
17813;DHT22;9030;50.792;8.320;2023-11-19T10:06:07;11.30;99.90
17813;DHT22;9030;50.792;8.320;2023-11-19T10:08:33;11.40;99.90
17813;DHT22;9030;50.792;8.320;2023-11-19T10:11:00;11.40;99.90
17813;DHT22;9030;50.792;8.320;2023-11-19T10:13:29;11.50;99.90
17813;DHT22;9030;50.792;8.320;2023-11-19T10:15:56;11.60;99.90
17813;DHT22;9030;50.792;8.320;2023-11-19T10:18:25;11.50;99.90
17813;DHT22;9030;50.792;8.320;2023-11-19T10:20:52;11.70;99.90
17813;DHT22;9030;50.792;8.320;2023-11-19T10:23:20;11.80;99.90
17813;DHT22;9030;50.792;8.320;2023-11-19T10:25:47;11.70;99.90
17813;DHT22;9030;50.792;8.320;2023-11-19T10:28:15;11.50;99.90
17813;DHT22;9030;50.792;8.320;2023-11-19T10:30:44;11.50;99.90
17813;DHT22;9030;50.792;8.320;2023-11-19T10:33:11;11.50;99.90
17813;DHT22;9030;50.792;8.320;2023-11-19T10:35:51;11.40;99.90
17813;DHT22;9030;50.792;8.320;2023-11-19T10:38:18;11.20;99.90
17813;DHT22;9030;50.792;8.320;2023-11-19T10:40:45;11.20;99.90
17813;DHT22;9030;50.792;8.320;2023-11-19T10:43:12;11.10;99.90
17813;DHT22;9030;50.792;8.320;2023-11-19T10:45:40;11.20;99.90
17813;DHT22;9030;50.792;8.320;2023-11-19T10:48:08;11.20;99.90
17813;DHT22;9030;50.792;8.320;2023-11-19T10:50:36;11.20;99.90
17813;DHT22;9030;50.792;8.320;2023-11-19T10:53:04;11.20;99.90
17813;DHT22;9030;50.792;8.320;2023-11-19T10:55:31;11.10;99.90
17813;DHT22;9030;50.792;8.320;2023-11-19T10:58:01;11.00;99.90
17813;DHT22;9030;50.792;8.320;2023-11-19T11:00:29;11.10;99.90
17813;DHT22;9030;50.792;8.320;2023-11-19T11:03:01;11.00;99.90
17813;DHT22;9030;50.792;8.320;2023-11-19T11:05:32;11.10;99.90
17813;DHT22;9030;50.792;8.320;2023-11-19T11:08:00;11.00;99.90
17813;DHT22;9030;50.792;8.320;2023-11-19T11:10:28;11.10;99.90
17813;DHT22;9030;50.792;8.320;2023-11-19T11:12:59;11.30;99.90
17813;DHT22;9030;50.792;8.320;2023-11-19T11:15:27;11.50;99.90
17813;DHT22;9030;50.792;8.320;2023-11-19T11:17:59;11.90;99.90
17813;DHT22;9030;50.792;8.320;2023-11-19T11:20:27;12.00;99.90
17813;DHT22;9030;50.792;8.320;2023-11-19T11:23:08;12.00;99.90
17813;DHT22;9030;50.792;8.320;2023-11-19T11:25:46;11.90;99.90
17813;DHT22;9030;50.792;8.320;2023-11-19T11:28:26;11.80;99.90
17813;DHT22;9030;50.792;8.320;2023-11-19T11:31:09;11.90;99.90
17813;DHT22;9030;50.792;8.320;2023-11-19T11:36:48;12.10;99.90
17813;DHT22;9030;50.792;8.320;2023-11-19T11:39:18;12.30;99.90
17813;DHT22;9030;50.792;8.320;2023-11-19T11:42:30;12.20;99.90
17813;DHT22;9030;50.792;8.320;2023-11-19T11:45:01;12.00;99.90
17813;DHT22;9030;50.792;8.320;2023-11-19T11:50:29;11.90;99.90
17813;DHT22;9030;50.792;8.320;2023-11-19T11:53:16;11.90;99.90
17813;DHT22;9030;50.792;8.320;2023-11-19T11:55:55;11.80;99.90
17813;DHT22;9030;50.792;8.320;2023-11-19T11:58:26;12.00;99.90
17813;DHT22;9030;50.792;8.320;2023-11-19T12:00:53;12.10;99.90
17813;DHT22;9030;50.792;8.320;2023-11-19T12:03:21;12.10;99.90
17813;DHT22;9030;50.792;8.320;2023-11-19T12:05:48;12.20;99.90
17813;DHT22;9030;50.792;8.320;2023-11-19T12:08:20;12.30;99.90
17813;DHT22;9030;50.792;8.320;2023-11-19T12:10:53;12.30;99.90
17813;DHT22;9030;50.792;8.320;2023-11-19T12:13:23;12.20;99.90
17813;DHT22;9030;50.792;8.320;2023-11-19T12:16:09;12.10;99.90
17813;DHT22;9030;50.792;8.320;2023-11-19T12:18:39;12.10;99.90
17813;DHT22;9030;50.792;8.320;2023-11-19T12:21:06;12.10;99.90
17813;DHT22;9030;50.792;8.320;2023-11-19T12:23:35;12.10;99.90
17813;DHT22;9030;50.792;8.320;2023-11-19T12:26:03;12.00;99.90
17813;DHT22;9030;50.792;8.320;2023-11-19T12:28:29;12.00;99.90
17813;DHT22;9030;50.792;8.320;2023-11-19T12:31:07;12.10;99.90
17813;DHT22;9030;50.792;8.320;2023-11-19T12:33:35;12.10;99.90
17813;DHT22;9030;50.792;8.320;2023-11-19T12:36:03;12.10;99.90
17813;DHT22;9030;50.792;8.320;2023-11-19T12:38:31;12.00;99.90
17813;DHT22;9030;50.792;8.320;2023-11-19T12:41:06;12.00;99.90
17813;DHT22;9030;50.792;8.320;2023-11-19T12:43:33;11.90;99.90
17813;DHT22;9030;50.792;8.320;2023-11-19T12:46:01;11.80;99.90
17813;DHT22;9030;50.792;8.320;2023-11-19T12:48:28;11.70;99.90
17813;DHT22;9030;50.792;8.320;2023-11-19T12:50:55;11.60;99.90
17813;DHT22;9030;50.792;8.320;2023-11-19T12:53:23;11.50;99.90
17813;DHT22;9030;50.792;8.320;2023-11-19T12:55:52;11.30;99.90
17813;DHT22;9030;50.792;8.320;2023-11-19T12:58:38;11.20;99.90
17813;DHT22;9030;50.792;8.320;2023-11-19T13:01:06;11.20;99.90
17813;DHT22;9030;50.792;8.320;2023-11-19T13:03:34;10.90;99.90
17813;DHT22;9030;50.792;8.320;2023-11-19T13:06:02;10.90;99.90
17813;DHT22;9030;50.792;8.320;2023-11-19T13:08:35;10.80;99.90
17813;DHT22;9030;50.792;8.320;2023-11-19T13:11:02;10.70;99.90
17813;DHT22;9030;50.792;8.320;2023-11-19T13:13:28;10.70;99.90
17813;DHT22;9030;50.792;8.320;2023-11-19T13:16:03;10.60;99.90
17813;DHT22;9030;50.792;8.320;2023-11-19T13:18:30;10.60;99.90
17813;DHT22;9030;50.792;8.320;2023-11-19T13:20:57;10.60;99.90
17813;DHT22;9030;50.792;8.320;2023-11-19T13:23:24;10.50;99.90
17813;DHT22;9030;50.792;8.320;2023-11-19T13:25:50;10.60;99.90
17813;DHT22;9030;50.792;8.320;2023-11-19T13:28:17;10.60;99.90
17813;DHT22;9030;50.792;8.320;2023-11-19T13:30:44;10.60;99.90
17813;DHT22;9030;50.792;8.320;2023-11-19T13:33:12;10.60;99.90
17813;DHT22;9030;50.792;8.320;2023-11-19T13:35:39;10.50;99.90
17813;DHT22;9030;50.792;8.320;2023-11-19T13:38:06;10.50;99.90
17813;DHT22;9030;50.792;8.320;2023-11-19T13:40:34;10.40;99.90
17813;DHT22;9030;50.792;8.320;2023-11-19T13:43:00;10.50;99.90
17813;DHT22;9030;50.792;8.320;2023-11-19T13:45:27;10.50;99.90
17813;DHT22;9030;50.792;8.320;2023-11-19T13:47:54;10.60;99.90
17813;DHT22;9030;50.792;8.320;2023-11-19T13:50:22;10.60;99.90
17813;DHT22;9030;50.792;8.320;2023-11-19T13:52:49;10.70;99.90
17813;DHT22;9030;50.792;8.320;2023-11-19T13:55:15;10.80;99.90
17813;DHT22;9030;50.792;8.320;2023-11-19T13:57:43;10.80;99.90
17813;DHT22;9030;50.792;8.320;2023-11-19T14:00:11;10.70;99.90
17813;DHT22;9030;50.792;8.320;2023-11-19T14:02:39;10.60;99.90
17813;DHT22;9030;50.792;8.320;2023-11-19T14:05:06;10.60;99.90
17813;DHT22;9030;50.792;8.320;2023-11-19T14:07:34;10.50;99.90
17813;DHT22;9030;50.792;8.320;2023-11-19T14:10:01;10.50;99.90
17813;DHT22;9030;50.792;8.320;2023-11-19T14:12:28;10.60;99.90
17813;DHT22;9030;50.792;8.320;2023-11-19T14:14:54;10.60;99.90
17813;DHT22;9030;50.792;8.320;2023-11-19T14:17:21;10.60;99.90
17813;DHT22;9030;50.792;8.320;2023-11-19T14:19:48;10.50;99.90
17813;DHT22;9030;50.792;8.320;2023-11-19T14:22:15;10.60;99.90
17813;DHT22;9030;50.792;8.320;2023-11-19T14:24:43;10.60;99.90
17813;DHT22;9030;50.792;8.320;2023-11-19T14:27:10;10.50;99.90
17813;DHT22;9030;50.792;8.320;2023-11-19T14:29:37;10.50;99.90
17813;DHT22;9030;50.792;8.320;2023-11-19T14:32:04;10.40;99.90
17813;DHT22;9030;50.792;8.320;2023-11-19T14:34:32;10.40;99.90
17813;DHT22;9030;50.792;8.320;2023-11-19T14:36:59;10.30;99.90
17813;DHT22;9030;50.792;8.320;2023-11-19T14:39:25;10.20;99.90
17813;DHT22;9030;50.792;8.320;2023-11-19T14:41:54;10.20;99.90
17813;DHT22;9030;50.792;8.320;2023-11-19T14:44:23;10.10;99.90
17813;DHT22;9030;50.792;8.320;2023-11-19T14:46:50;10.10;99.90
17813;DHT22;9030;50.792;8.320;2023-11-19T14:49:16;10.00;99.90
17813;DHT22;9030;50.792;8.320;2023-11-19T14:51:43;9.90;99.90
17813;DHT22;9030;50.792;8.320;2023-11-19T14:54:09;9.80;99.90
17813;DHT22;9030;50.792;8.320;2023-11-19T14:56:36;9.70;99.90
17813;DHT22;9030;50.792;8.320;2023-11-19T14:59:05;9.60;99.90
17813;DHT22;9030;50.792;8.320;2023-11-19T15:01:33;9.60;99.90
17813;DHT22;9030;50.792;8.320;2023-11-19T15:03:59;9.60;99.90
17813;DHT22;9030;50.792;8.320;2023-11-19T15:06:26;9.60;99.90
17813;DHT22;9030;50.792;8.320;2023-11-19T15:08:54;9.60;99.90
17813;DHT22;9030;50.792;8.320;2023-11-19T15:11:21;9.60;99.90
17813;DHT22;9030;50.792;8.320;2023-11-19T15:13:48;9.60;99.90
17813;DHT22;9030;50.792;8.320;2023-11-19T15:16:16;9.60;99.90
17813;DHT22;9030;50.792;8.320;2023-11-19T15:18:48;9.50;99.90
17813;DHT22;9030;50.792;8.320;2023-11-19T15:21:14;9.50;99.90
17813;DHT22;9030;50.792;8.320;2023-11-19T15:23:41;9.40;99.90
17813;DHT22;9030;50.792;8.320;2023-11-19T15:26:08;9.50;99.90
17813;DHT22;9030;50.792;8.320;2023-11-19T15:28:35;9.40;99.90
17813;DHT22;9030;50.792;8.320;2023-11-19T15:31:02;9.40;99.90
17813;DHT22;9030;50.792;8.320;2023-11-19T15:33:30;9.30;99.90
17813;DHT22;9030;50.792;8.320;2023-11-19T15:35:57;9.30;99.90
17813;DHT22;9030;50.792;8.320;2023-11-19T15:38:25;9.30;99.90
17813;DHT22;9030;50.792;8.320;2023-11-19T15:40:52;9.30;99.90
17813;DHT22;9030;50.792;8.320;2023-11-19T15:43:19;9.40;99.90
17813;DHT22;9030;50.792;8.320;2023-11-19T15:45:45;9.40;99.90
17813;DHT22;9030;50.792;8.320;2023-11-19T15:48:12;9.40;99.90
17813;DHT22;9030;50.792;8.320;2023-11-19T15:50:40;9.30;99.90
17813;DHT22;9030;50.792;8.320;2023-11-19T15:53:09;9.30;99.90
17813;DHT22;9030;50.792;8.320;2023-11-19T15:55:36;9.40;99.90
17813;DHT22;9030;50.792;8.320;2023-11-19T15:58:03;9.40;99.90
17813;DHT22;9030;50.792;8.320;2023-11-19T16:00:30;9.30;99.90
17813;DHT22;9030;50.792;8.320;2023-11-19T16:02:57;9.40;99.90
17813;DHT22;9030;50.792;8.320;2023-11-19T16:05:23;9.40;99.90